sensor_id;sensor_type;location;lat;lon;timestamp;pressure;altitude;pressure_sealevel;temperature;humidity
6208;BME280;3137;51.550;7.060;2023-07-29T00:02:20;100399.38;;;19.06;87.90
6208;BME280;3137;51.550;7.060;2023-07-29T00:04:47;100396.69;;;19.00;88.53
6208;BME280;3137;51.550;7.060;2023-07-29T00:07:13;100400.66;;;18.97;88.08
6208;BME280;3137;51.550;7.060;2023-07-29T00:09:40;100399.84;;;18.90;88.17
6208;BME280;3137;51.550;7.060;2023-07-29T00:12:07;100394.88;;;18.87;88.43
6208;BME280;3137;51.550;7.060;2023-07-29T00:14:33;100400.09;;;18.82;88.18
6208;BME280;3137;51.550;7.060;2023-07-29T00:16:59;100401.34;;;18.80;88.86
6208;BME280;3137;51.550;7.060;2023-07-29T00:19:26;100396.34;;;18.77;88.43
6208;BME280;3137;51.550;7.060;2023-07-29T00:21:54;100401.56;;;18.71;88.79
6208;BME280;3137;51.550;7.060;2023-07-29T00:24:21;100397.22;;;18.70;88.78
6208;BME280;3137;51.550;7.060;2023-07-29T00:26:47;100402.00;;;18.68;88.67
6208;BME280;3137;51.550;7.060;2023-07-29T00:29:14;100396.38;;;18.70;88.90
6208;BME280;3137;51.550;7.060;2023-07-29T00:31:40;100394.06;;;18.74;88.64
6208;BME280;3137;51.550;7.060;2023-07-29T00:34:07;100400.31;;;18.74;88.82
6208;BME280;3137;51.550;7.060;2023-07-29T00:36:35;100387.81;;;18.73;89.07
6208;BME280;3137;51.550;7.060;2023-07-29T00:39:02;100390.31;;;18.75;88.68
6208;BME280;3137;51.550;7.060;2023-07-29T00:41:28;100384.28;;;18.73;88.84
6208;BME280;3137;51.550;7.060;2023-07-29T00:43:54;100379.94;;;18.65;89.00
6208;BME280;3137;51.550;7.060;2023-07-29T00:46:21;100382.66;;;18.58;88.97
6208;BME280;3137;51.550;7.060;2023-07-29T00:48:48;100373.50;;;18.53;89.20
6208;BME280;3137;51.550;7.060;2023-07-29T00:51:15;100378.25;;;18.51;89.15
6208;BME280;3137;51.550;7.060;2023-07-29T00:53:42;100370.56;;;18.48;89.54
6208;BME280;3137;51.550;7.060;2023-07-29T00:56:08;100358.06;;;18.47;89.62
6208;BME280;3137;51.550;7.060;2023-07-29T00:58:37;100362.03;;;18.44;89.46
6208;BME280;3137;51.550;7.060;2023-07-29T01:01:04;100372.22;;;18.42;89.49
6208;BME280;3137;51.550;7.060;2023-07-29T01:03:31;100365.78;;;18.43;89.71
6208;BME280;3137;51.550;7.060;2023-07-29T01:06:09;100365.97;;;18.42;89.81
6208;BME280;3137;51.550;7.060;2023-07-29T01:08:46;100363.72;;;18.45;89.71
6208;BME280;3137;51.550;7.060;2023-07-29T01:11:41;100369.31;;;18.44;89.29
6208;BME280;3137;51.550;7.060;2023-07-29T01:14:33;100368.28;;;18.38;89.59
6208;BME280;3137;51.550;7.060;2023-07-29T01:17:03;100374.53;;;18.39;89.35
6208;BME280;3137;51.550;7.060;2023-07-29T01:19:38;100364.75;;;18.38;89.78
6208;BME280;3137;51.550;7.060;2023-07-29T01:22:08;100360.38;;;18.37;89.77
6208;BME280;3137;51.550;7.060;2023-07-29T01:24:36;100358.28;;;18.39;89.90
6208;BME280;3137;51.550;7.060;2023-07-29T01:27:03;100359.31;;;18.38;89.60
6208;BME280;3137;51.550;7.060;2023-07-29T01:29:31;100357.25;;;18.40;90.08
6208;BME280;3137;51.550;7.060;2023-07-29T01:32:03;100360.56;;;18.42;90.03
6208;BME280;3137;51.550;7.060;2023-07-29T01:34:41;100371.00;;;18.45;90.11
6208;BME280;3137;51.550;7.060;2023-07-29T01:37:14;100363.47;;;18.47;89.94
6208;BME280;3137;51.550;7.060;2023-07-29T01:39:45;100354.75;;;18.45;89.77
6208;BME280;3137;51.550;7.060;2023-07-29T01:42:12;100353.91;;;18.44;89.88
6208;BME280;3137;51.550;7.060;2023-07-29T01:44:39;100351.63;;;18.41;90.42
6208;BME280;3137;51.550;7.060;2023-07-29T01:47:06;100347.88;;;18.42;90.58
6208;BME280;3137;51.550;7.060;2023-07-29T01:49:33;100344.31;;;18.42;90.39
6208;BME280;3137;51.550;7.060;2023-07-29T01:52:00;100344.97;;;18.44;90.44
6208;BME280;3137;51.550;7.060;2023-07-29T01:54:26;100336.84;;;18.44;90.69
6208;BME280;3137;51.550;7.060;2023-07-29T01:56:53;100343.09;;;18.44;90.65
6208;BME280;3137;51.550;7.060;2023-07-29T01:59:19;100343.69;;;18.46;90.37
6208;BME280;3137;51.550;7.060;2023-07-29T02:01:46;100336.41;;;18.47;90.61
6208;BME280;3137;51.550;7.060;2023-07-29T02:04:12;100341.41;;;18.50;90.67
6208;BME280;3137;51.550;7.060;2023-07-29T02:06:39;100326.81;;;18.51;90.59
6208;BME280;3137;51.550;7.060;2023-07-29T02:09:06;100333.91;;;18.52;90.80
6208;BME280;3137;51.550;7.060;2023-07-29T02:11:33;100332.66;;;18.54;90.75
6208;BME280;3137;51.550;7.060;2023-07-29T02:13:59;100336.19;;;18.55;90.69
6208;BME280;3137;51.550;7.060;2023-07-29T02:16:26;100329.16;;;18.54;90.86
6208;BME280;3137;51.550;7.060;2023-07-29T02:18:52;100321.03;;;18.54;90.68
6208;BME280;3137;51.550;7.060;2023-07-29T02:21:22;100313.94;;;18.53;90.88
6208;BME280;3137;51.550;7.060;2023-07-29T02:23:48;100304.78;;;18.54;90.44
6208;BME280;3137;51.550;7.060;2023-07-29T02:26:16;100308.69;;;18.51;90.96
6208;BME280;3137;51.550;7.060;2023-07-29T02:28:42;100310.19;;;18.54;90.93
6208;BME280;3137;51.550;7.060;2023-07-29T02:31:16;100314.53;;;18.55;91.05
6208;BME280;3137;51.550;7.060;2023-07-29T02:33:44;100306.41;;;18.55;91.15
6208;BME280;3137;51.550;7.060;2023-07-29T02:36:12;100303.31;;;18.58;90.66
6208;BME280;3137;51.550;7.060;2023-07-29T02:38:40;100303.50;;;18.56;90.98
6208;BME280;3137;51.550;7.060;2023-07-29T02:41:09;100305.38;;;18.56;90.78
6208;BME280;3137;51.550;7.060;2023-07-29T02:43:38;100312.66;;;18.55;90.78
6208;BME280;3137;51.550;7.060;2023-07-29T02:46:05;100319.56;;;18.58;90.94
6208;BME280;3137;51.550;7.060;2023-07-29T02:48:31;100322.25;;;18.58;90.82
6208;BME280;3137;51.550;7.060;2023-07-29T02:50:58;100322.25;;;18.58;90.82
6208;BME280;3137;51.550;7.060;2023-07-29T02:53:25;100313.06;;;18.59;90.86
6208;BME280;3137;51.550;7.060;2023-07-29T02:55:51;100315.56;;;18.60;90.95
6208;BME280;3137;51.550;7.060;2023-07-29T02:58:19;100303.91;;;18.60;90.99
6208;BME280;3137;51.550;7.060;2023-07-29T03:00:45;100305.38;;;18.62;91.02
6208;BME280;3137;51.550;7.060;2023-07-29T03:03:14;100308.88;;;18.63;91.33
6208;BME280;3137;51.550;7.060;2023-07-29T03:05:41;100316.22;;;18.62;91.48
6208;BME280;3137;51.550;7.060;2023-07-29T03:08:08;100315.78;;;18.65;91.32
6208;BME280;3137;51.550;7.060;2023-07-29T03:10:35;100332.56;;;18.87;90.99
6208;BME280;3137;51.550;7.060;2023-07-29T03:13:02;100332.13;;;18.90;90.88
6208;BME280;3137;51.550;7.060;2023-07-29T03:15:29;100334.63;;;18.92;90.98
6208;BME280;3137;51.550;7.060;2023-07-29T03:17:55;100321.63;;;19.07;90.27
6208;BME280;3137;51.550;7.060;2023-07-29T03:20:22;100322.44;;;19.07;90.46
6208;BME280;3137;51.550;7.060;2023-07-29T03:22:49;100326.19;;;19.06;90.80
6208;BME280;3137;51.550;7.060;2023-07-29T03:25:15;100319.94;;;19.06;90.79
6208;BME280;3137;51.550;7.060;2023-07-29T03:27:42;100316.84;;;19.09;90.57
6208;BME280;3137;51.550;7.060;2023-07-29T03:30:09;100318.47;;;19.10;90.24
6208;BME280;3137;51.550;7.060;2023-07-29T03:32:37;100320.53;;;19.14;90.53
6208;BME280;3137;51.550;7.060;2023-07-29T03:35:04;100323.41;;;19.20;89.78
6208;BME280;3137;51.550;7.060;2023-07-29T03:37:31;100319.88;;;19.19;90.16
6208;BME280;3137;51.550;7.060;2023-07-29T03:39:57;100330.66;;;19.32;89.51
6208;BME280;3137;51.550;7.060;2023-07-29T03:42:24;100320.03;;;19.31;89.06
6208;BME280;3137;51.550;7.060;2023-07-29T03:44:51;100325.63;;;19.36;88.68
6208;BME280;3137;51.550;7.060;2023-07-29T03:47:17;100320.84;;;19.31;88.51
6208;BME280;3137;51.550;7.060;2023-07-29T03:49:44;100310.00;;;19.31;88.29
6208;BME280;3137;51.550;7.060;2023-07-29T03:52:11;100308.38;;;19.30;88.65
6208;BME280;3137;51.550;7.060;2023-07-29T03:54:38;100312.56;;;19.26;88.49
6208;BME280;3137;51.550;7.060;2023-07-29T03:57:05;100311.47;;;19.27;88.56
6208;BME280;3137;51.550;7.060;2023-07-29T03:59:32;100305.03;;;19.28;88.75
6208;BME280;3137;51.550;7.060;2023-07-29T04:01:58;100298.50;;;19.36;87.96
6208;BME280;3137;51.550;7.060;2023-07-29T04:04:25;100301.53;;;19.21;88.93
6208;BME280;3137;51.550;7.060;2023-07-29T04:06:51;100300.69;;;19.21;88.77
6208;BME280;3137;51.550;7.060;2023-07-29T04:09:18;100300.53;;;19.15;88.94
6208;BME280;3137;51.550;7.060;2023-07-29T04:11:44;100300.66;;;19.27;88.77
6208;BME280;3137;51.550;7.060;2023-07-29T04:14:11;100305.22;;;19.27;88.06
6208;BME280;3137;51.550;7.060;2023-07-29T04:16:37;100301.16;;;19.17;88.92
6208;BME280;3137;51.550;7.060;2023-07-29T04:19:04;100299.66;;;19.22;88.55
6208;BME280;3137;51.550;7.060;2023-07-29T04:21:31;100301.34;;;19.16;88.58
6208;BME280;3137;51.550;7.060;2023-07-29T04:23:57;100303.63;;;19.19;89.09
6208;BME280;3137;51.550;7.060;2023-07-29T04:26:24;100304.06;;;19.16;89.34
6208;BME280;3137;51.550;7.060;2023-07-29T04:28:50;100295.53;;;19.12;89.00
6208;BME280;3137;51.550;7.060;2023-07-29T04:31:17;100292.00;;;19.12;89.20
6208;BME280;3137;51.550;7.060;2023-07-29T04:33:43;100288.50;;;19.05;88.84
6208;BME280;3137;51.550;7.060;2023-07-29T04:36:10;100298.00;;;19.14;88.48
6208;BME280;3137;51.550;7.060;2023-07-29T04:38:37;100302.47;;;19.02;89.03
6208;BME280;3137;51.550;7.060;2023-07-29T04:41:03;100317.50;;;18.98;89.01
6208;BME280;3137;51.550;7.060;2023-07-29T04:43:33;100327.56;;;18.84;88.74
6208;BME280;3137;51.550;7.060;2023-07-29T04:45:59;100332.75;;;18.92;88.56
6208;BME280;3137;51.550;7.060;2023-07-29T04:48:26;100343.34;;;18.94;88.02
6208;BME280;3137;51.550;7.060;2023-07-29T04:50:53;100340.28;;;18.84;88.04
6208;BME280;3137;51.550;7.060;2023-07-29T04:53:19;100351.13;;;18.84;87.75
6208;BME280;3137;51.550;7.060;2023-07-29T04:55:46;100355.31;;;18.73;87.33
6208;BME280;3137;51.550;7.060;2023-07-29T04:58:12;100343.44;;;18.74;86.62
6208;BME280;3137;51.550;7.060;2023-07-29T05:00:39;100355.53;;;18.71;86.69
6208;BME280;3137;51.550;7.060;2023-07-29T05:03:05;100357.03;;;18.61;87.58
6208;BME280;3137;51.550;7.060;2023-07-29T05:05:33;100359.09;;;18.65;86.77
6208;BME280;3137;51.550;7.060;2023-07-29T05:08:00;100358.91;;;18.67;86.38
6208;BME280;3137;51.550;7.060;2023-07-29T05:10:26;100356.38;;;18.59;86.83
6208;BME280;3137;51.550;7.060;2023-07-29T05:12:53;100343.91;;;18.58;86.93
6208;BME280;3137;51.550;7.060;2023-07-29T05:15:19;100336.19;;;18.61;86.63
6208;BME280;3137;51.550;7.060;2023-07-29T05:17:46;100315.63;;;18.54;87.07
6208;BME280;3137;51.550;7.060;2023-07-29T05:20:12;100307.88;;;18.51;87.36
6208;BME280;3137;51.550;7.060;2023-07-29T05:22:39;100303.94;;;18.53;86.85
6208;BME280;3137;51.550;7.060;2023-07-29T05:25:06;100312.06;;;18.53;86.93
6208;BME280;3137;51.550;7.060;2023-07-29T05:27:32;100317.84;;;18.63;85.61
6208;BME280;3137;51.550;7.060;2023-07-29T05:29:59;100309.31;;;18.60;85.07
6208;BME280;3137;51.550;7.060;2023-07-29T05:32:25;100315.56;;;18.60;84.73
6208;BME280;3137;51.550;7.060;2023-07-29T05:34:51;100316.00;;;18.57;84.25
6208;BME280;3137;51.550;7.060;2023-07-29T05:37:19;100332.84;;;18.59;83.55
6208;BME280;3137;51.550;7.060;2023-07-29T05:39:45;100344.97;;;18.57;84.00
6208;BME280;3137;51.550;7.060;2023-07-29T05:42:12;100355.56;;;18.52;83.19
6208;BME280;3137;51.550;7.060;2023-07-29T05:44:39;100358.09;;;18.53;82.46
6208;BME280;3137;51.550;7.060;2023-07-29T05:47:05;100359.72;;;18.48;82.44
6208;BME280;3137;51.550;7.060;2023-07-29T05:49:32;100365.19;;;18.41;82.13
6208;BME280;3137;51.550;7.060;2023-07-29T05:51:59;100371.19;;;18.43;80.97
6208;BME280;3137;51.550;7.060;2023-07-29T05:54:25;100379.13;;;18.32;80.82
6208;BME280;3137;51.550;7.060;2023-07-29T05:56:52;100387.44;;;18.30;78.80
6208;BME280;3137;51.550;7.060;2023-07-29T05:59:18;100393.91;;;18.36;78.81
6208;BME280;3137;51.550;7.060;2023-07-29T06:01:45;100387.03;;;18.33;78.44
6208;BME280;3137;51.550;7.060;2023-07-29T06:04:12;100378.91;;;18.33;76.98
6208;BME280;3137;51.550;7.060;2023-07-29T06:06:38;100393.09;;;18.29;76.89
6208;BME280;3137;51.550;7.060;2023-07-29T06:09:05;100396.19;;;18.25;76.39
6208;BME280;3137;51.550;7.060;2023-07-29T06:11:31;100395.97;;;18.20;77.31
6208;BME280;3137;51.550;7.060;2023-07-29T06:13:58;100404.13;;;18.27;77.22
6208;BME280;3137;51.550;7.060;2023-07-29T06:16:24;100410.38;;;18.27;76.59
6208;BME280;3137;51.550;7.060;2023-07-29T06:18:51;100407.25;;;18.24;75.94
6208;BME280;3137;51.550;7.060;2023-07-29T06:21:19;100411.41;;;18.20;76.21
6208;BME280;3137;51.550;7.060;2023-07-29T06:23:46;100401.41;;;18.20;75.76
6208;BME280;3137;51.550;7.060;2023-07-29T06:26:12;100417.84;;;18.19;75.73
6208;BME280;3137;51.550;7.060;2023-07-29T06:28:39;100416.63;;;18.15;76.49
6208;BME280;3137;51.550;7.060;2023-07-29T06:31:05;100421.63;;;18.24;75.94
6208;BME280;3137;51.550;7.060;2023-07-29T06:33:32;100424.31;;;18.18;75.87
6208;BME280;3137;51.550;7.060;2023-07-29T06:35:58;100426.19;;;18.24;75.53
6208;BME280;3137;51.550;7.060;2023-07-29T06:38:25;100439.28;;;18.20;76.31
6208;BME280;3137;51.550;7.060;2023-07-29T06:40:51;100441.59;;;18.23;76.88
6208;BME280;3137;51.550;7.060;2023-07-29T06:43:18;100434.28;;;18.31;77.35
6208;BME280;3137;51.550;7.060;2023-07-29T06:45:45;100437.44;;;18.27;77.88
6208;BME280;3137;51.550;7.060;2023-07-29T06:48:11;100437.63;;;18.33;78.51
6208;BME280;3137;51.550;7.060;2023-07-29T06:50:38;100422.66;;;18.37;77.48
6208;BME280;3137;51.550;7.060;2023-07-29T06:53:04;100435.53;;;18.21;77.72
6208;BME280;3137;51.550;7.060;2023-07-29T06:55:31;100432.22;;;18.33;77.36
6208;BME280;3137;51.550;7.060;2023-07-29T06:57:57;100436.38;;;18.35;77.50
6208;BME280;3137;51.550;7.060;2023-07-29T07:00:24;100432.84;;;18.28;77.76
6208;BME280;3137;51.550;7.060;2023-07-29T07:02:50;100441.78;;;18.35;76.83
6208;BME280;3137;51.550;7.060;2023-07-29T07:05:17;100433.88;;;18.34;77.05
6208;BME280;3137;51.550;7.060;2023-07-29T07:07:43;100425.75;;;18.34;76.83
6208;BME280;3137;51.550;7.060;2023-07-29T07:10:10;100430.75;;;18.37;76.79
6208;BME280;3137;51.550;7.060;2023-07-29T07:12:36;100424.28;;;18.38;76.50
6208;BME280;3137;51.550;7.060;2023-07-29T07:15:03;100424.72;;;18.35;76.49
6208;BME280;3137;51.550;7.060;2023-07-29T07:17:30;100431.38;;;18.32;76.37
6208;BME280;3137;51.550;7.060;2023-07-29T07:19:56;100430.13;;;18.35;76.70
6208;BME280;3137;51.550;7.060;2023-07-29T07:22:23;100428.03;;;18.43;76.46
6208;BME280;3137;51.550;7.060;2023-07-29T07:24:50;100431.59;;;18.57;75.84
6208;BME280;3137;51.550;7.060;2023-07-29T07:27:16;100429.31;;;18.67;75.04
6208;BME280;3137;51.550;7.060;2023-07-29T07:29:43;100423.88;;;18.60;75.41
6208;BME280;3137;51.550;7.060;2023-07-29T07:32:09;100426.78;;;18.79;74.98
6208;BME280;3137;51.550;7.060;2023-07-29T07:34:36;100426.78;;;18.79;74.61
6208;BME280;3137;51.550;7.060;2023-07-29T07:37:02;100424.44;;;18.89;74.94
6208;BME280;3137;51.550;7.060;2023-07-29T07:39:31;100429.66;;;18.90;74.07
6208;BME280;3137;51.550;7.060;2023-07-29T07:41:58;100434.22;;;18.96;73.94
6208;BME280;3137;51.550;7.060;2023-07-29T07:44:24;100429.84;;;18.89;73.46
6208;BME280;3137;51.550;7.060;2023-07-29T07:46:52;100435.25;;;18.95;72.58
6208;BME280;3137;51.550;7.060;2023-07-29T07:49:19;100432.16;;;18.92;73.41
6208;BME280;3137;51.550;7.060;2023-07-29T07:51:46;100423.34;;;19.03;73.81
6208;BME280;3137;51.550;7.060;2023-07-29T07:54:12;100421.03;;;19.06;72.66
6208;BME280;3137;51.550;7.060;2023-07-29T07:56:39;100424.97;;;19.10;72.12
6208;BME280;3137;51.550;7.060;2023-07-29T07:59:06;100420.84;;;19.08;72.96
6208;BME280;3137;51.550;7.060;2023-07-29T08:01:36;100424.34;;;19.15;73.32
6208;BME280;3137;51.550;7.060;2023-07-29T08:04:03;100419.94;;;19.21;71.39
6208;BME280;3137;51.550;7.060;2023-07-29T08:06:30;100430.19;;;19.12;70.57
6208;BME280;3137;51.550;7.060;2023-07-29T08:08:57;100427.66;;;19.24;71.07
6208;BME280;3137;51.550;7.060;2023-07-29T08:11:25;100436.38;;;19.32;71.33
6208;BME280;3137;51.550;7.060;2023-07-29T08:13:51;100434.69;;;19.31;71.74
6208;BME280;3137;51.550;7.060;2023-07-29T08:16:18;100433.41;;;19.47;70.06
6208;BME280;3137;51.550;7.060;2023-07-29T08:18:44;100435.28;;;19.46;71.08
6208;BME280;3137;51.550;7.060;2023-07-29T08:21:11;100436.34;;;19.45;71.58
6208;BME280;3137;51.550;7.060;2023-07-29T08:23:37;100429.81;;;19.53;70.86
6208;BME280;3137;51.550;7.060;2023-07-29T08:26:05;100431.94;;;19.51;70.93
6208;BME280;3137;51.550;7.060;2023-07-29T08:28:35;100433.13;;;19.61;70.28
6208;BME280;3137;51.550;7.060;2023-07-29T08:31:02;100440.59;;;19.66;70.97
6208;BME280;3137;51.550;7.060;2023-07-29T08:33:30;100435.63;;;19.63;70.37
6208;BME280;3137;51.550;7.060;2023-07-29T08:35:57;100432.81;;;19.76;69.34
6208;BME280;3137;51.550;7.060;2023-07-29T08:38:23;100429.00;;;19.84;69.76
6208;BME280;3137;51.550;7.060;2023-07-29T08:41:01;100431.66;;;19.90;70.06
6208;BME280;3137;51.550;7.060;2023-07-29T08:43:32;100434.81;;;19.94;68.96
6208;BME280;3137;51.550;7.060;2023-07-29T08:45:59;100435.19;;;19.97;68.16
6208;BME280;3137;51.550;7.060;2023-07-29T08:48:44;100432.31;;;20.17;70.41
6208;BME280;3137;51.550;7.060;2023-07-29T08:51:12;100426.59;;;20.25;67.31
6208;BME280;3137;51.550;7.060;2023-07-29T08:53:39;100422.00;;;20.26;67.24
6208;BME280;3137;51.550;7.060;2023-07-29T08:56:06;100417.16;;;20.34;67.99
6208;BME280;3137;51.550;7.060;2023-07-29T08:58:34;100418.03;;;20.28;68.14
6208;BME280;3137;51.550;7.060;2023-07-29T09:01:01;100417.72;;;20.43;69.15
6208;BME280;3137;51.550;7.060;2023-07-29T09:03:27;100414.16;;;20.42;68.97
6208;BME280;3137;51.550;7.060;2023-07-29T09:05:55;100411.16;;;20.50;67.32
6208;BME280;3137;51.550;7.060;2023-07-29T09:08:25;100417.00;;;20.72;68.90
6208;BME280;3137;51.550;7.060;2023-07-29T09:10:53;100414.06;;;20.74;64.67
6208;BME280;3137;51.550;7.060;2023-07-29T09:13:19;100410.97;;;20.70;65.03
6208;BME280;3137;51.550;7.060;2023-07-29T09:15:46;100418.78;;;20.60;65.31
6208;BME280;3137;51.550;7.060;2023-07-29T09:18:17;100420.38;;;20.68;66.83
6208;BME280;3137;51.550;7.060;2023-07-29T09:20:48;100422.13;;;20.62;65.61
6208;BME280;3137;51.550;7.060;2023-07-29T09:23:15;100428.78;;;20.66;65.15
6208;BME280;3137;51.550;7.060;2023-07-29T09:25:42;100430.75;;;20.77;66.39
6208;BME280;3137;51.550;7.060;2023-07-29T09:28:14;100427.03;;;20.90;65.87
6208;BME280;3137;51.550;7.060;2023-07-29T09:30:42;100423.72;;;20.88;66.52
6208;BME280;3137;51.550;7.060;2023-07-29T09:33:09;100422.19;;;20.92;66.54
6208;BME280;3137;51.550;7.060;2023-07-29T09:35:37;100427.25;;;21.07;67.37
6208;BME280;3137;51.550;7.060;2023-07-29T09:38:04;100426.44;;;21.06;66.29
6208;BME280;3137;51.550;7.060;2023-07-29T09:40:39;100425.56;;;21.12;66.08
6208;BME280;3137;51.550;7.060;2023-07-29T09:43:08;100434.69;;;21.18;65.58
6208;BME280;3137;51.550;7.060;2023-07-29T09:45:36;100434.84;;;21.05;66.77
6208;BME280;3137;51.550;7.060;2023-07-29T09:48:04;100428.56;;;21.04;67.59
6208;BME280;3137;51.550;7.060;2023-07-29T09:50:35;100438.59;;;21.04;65.67
6208;BME280;3137;51.550;7.060;2023-07-29T09:53:03;100440.84;;;20.88;67.05
6208;BME280;3137;51.550;7.060;2023-07-29T09:55:32;100432.84;;;20.75;66.75
6208;BME280;3137;51.550;7.060;2023-07-29T09:58:00;100440.41;;;20.73;67.54
6208;BME280;3137;51.550;7.060;2023-07-29T10:00:30;100448.75;;;20.72;67.29
6208;BME280;3137;51.550;7.060;2023-07-29T10:02:57;100448.06;;;20.58;68.21
6208;BME280;3137;51.550;7.060;2023-07-29T10:05:26;100451.72;;;20.45;69.85
6208;BME280;3137;51.550;7.060;2023-07-29T10:07:54;100448.03;;;20.40;70.23
6208;BME280;3137;51.550;7.060;2023-07-29T10:10:21;100439.34;;;20.31;70.16
6208;BME280;3137;51.550;7.060;2023-07-29T10:12:48;100445.06;;;20.41;70.13
6208;BME280;3137;51.550;7.060;2023-07-29T10:15:17;100441.31;;;20.42;70.88
6208;BME280;3137;51.550;7.060;2023-07-29T10:17:45;100445.41;;;20.51;69.63
6208;BME280;3137;51.550;7.060;2023-07-29T10:20:15;100440.19;;;20.50;70.08
6208;BME280;3137;51.550;7.060;2023-07-29T10:22:43;100441.06;;;20.69;70.42
6208;BME280;3137;51.550;7.060;2023-07-29T10:25:16;100433.78;;;20.87;71.56
6208;BME280;3137;51.550;7.060;2023-07-29T10:27:43;100436.78;;;20.97;69.14
6208;BME280;3137;51.550;7.060;2023-07-29T10:30:13;100427.25;;;21.07;69.41
6208;BME280;3137;51.550;7.060;2023-07-29T10:32:44;100426.41;;;21.13;67.54
6208;BME280;3137;51.550;7.060;2023-07-29T10:35:12;100424.28;;;21.15;66.16
6208;BME280;3137;51.550;7.060;2023-07-29T10:37:39;100430.53;;;21.15;65.38
6208;BME280;3137;51.550;7.060;2023-07-29T10:40:08;100431.38;;;21.16;65.28
6208;BME280;3137;51.550;7.060;2023-07-29T10:42:39;100428.28;;;21.12;65.52
6208;BME280;3137;51.550;7.060;2023-07-29T10:45:25;100432.25;;;21.10;64.80
6208;BME280;3137;51.550;7.060;2023-07-29T10:47:51;100431.66;;;21.08;65.92
6208;BME280;3137;51.550;7.060;2023-07-29T10:50:20;100436.28;;;21.25;66.22
6208;BME280;3137;51.550;7.060;2023-07-29T10:52:51;100434.34;;;21.44;65.98
6208;BME280;3137;51.550;7.060;2023-07-29T10:55:29;100420.72;;;21.62;66.50
6208;BME280;3137;51.550;7.060;2023-07-29T10:58:13;100426.31;;;21.67;66.04
6208;BME280;3137;51.550;7.060;2023-07-29T11:00:44;100425.50;;;21.78;65.54
6208;BME280;3137;51.550;7.060;2023-07-29T11:03:12;100434.16;;;21.57;63.41
6208;BME280;3137;51.550;7.060;2023-07-29T11:05:45;100416.50;;;21.48;64.59
6208;BME280;3137;51.550;7.060;2023-07-29T11:08:29;100424.22;;;21.51;66.20
6208;BME280;3137;51.550;7.060;2023-07-29T11:11:07;100421.72;;;21.79;65.02
6208;BME280;3137;51.550;7.060;2023-07-29T11:13:35;100415.66;;;21.77;63.78
6208;BME280;3137;51.550;7.060;2023-07-29T11:16:02;100409.03;;;21.73;64.02
6208;BME280;3137;51.550;7.060;2023-07-29T11:18:31;100412.56;;;22.04;63.14
6208;BME280;3137;51.550;7.060;2023-07-29T11:20:58;100420.31;;;22.18;65.93
6208;BME280;3137;51.550;7.060;2023-07-29T11:23:36;100420.03;;;22.20;62.69
6208;BME280;3137;51.550;7.060;2023-07-29T11:26:04;100416.38;;;22.14;64.36
6208;BME280;3137;51.550;7.060;2023-07-29T11:28:30;100415.69;;;22.19;64.98
6208;BME280;3137;51.550;7.060;2023-07-29T11:30:57;100412.47;;;22.10;64.58
6208;BME280;3137;51.550;7.060;2023-07-29T11:33:25;100415.91;;;22.17;64.80
6208;BME280;3137;51.550;7.060;2023-07-29T11:35:54;100413.66;;;22.14;64.42
6208;BME280;3137;51.550;7.060;2023-07-29T11:38:26;100411.88;;;22.08;64.12
6208;BME280;3137;51.550;7.060;2023-07-29T11:40:59;100418.13;;;21.97;63.89
6208;BME280;3137;51.550;7.060;2023-07-29T11:43:26;100425.41;;;21.85;64.32
6208;BME280;3137;51.550;7.060;2023-07-29T11:45:53;100426.19;;;21.74;65.44
6208;BME280;3137;51.550;7.060;2023-07-29T11:48:27;100421.44;;;21.69;65.59
6208;BME280;3137;51.550;7.060;2023-07-29T11:50:54;100417.09;;;21.68;64.22
6208;BME280;3137;51.550;7.060;2023-07-29T11:53:21;100416.06;;;21.81;65.79
6208;BME280;3137;51.550;7.060;2023-07-29T11:55:51;100413.81;;;21.90;66.28
6208;BME280;3137;51.550;7.060;2023-07-29T11:58:20;100408.19;;;22.03;65.27
6208;BME280;3137;51.550;7.060;2023-07-29T12:00:46;100406.66;;;22.07;64.45
6208;BME280;3137;51.550;7.060;2023-07-29T12:03:13;100404.53;;;22.09;64.29
6208;BME280;3137;51.550;7.060;2023-07-29T12:05:41;100409.53;;;22.23;64.60
6208;BME280;3137;51.550;7.060;2023-07-29T12:08:08;100403.84;;;22.25;64.89
6208;BME280;3137;51.550;7.060;2023-07-29T12:10:35;100386.78;;;22.41;64.14
6208;BME280;3137;51.550;7.060;2023-07-29T12:13:02;100383.97;;;22.48;61.84
6208;BME280;3137;51.550;7.060;2023-07-29T12:15:29;100380.63;;;22.57;62.64
6208;BME280;3137;51.550;7.060;2023-07-29T12:17:57;100386.31;;;22.56;61.79
6208;BME280;3137;51.550;7.060;2023-07-29T12:20:25;100390.81;;;22.50;62.02
6208;BME280;3137;51.550;7.060;2023-07-29T12:23:01;100396.13;;;22.45;62.13
6208;BME280;3137;51.550;7.060;2023-07-29T12:25:29;100400.31;;;22.36;62.23
6208;BME280;3137;51.550;7.060;2023-07-29T12:27:56;100396.03;;;22.28;62.93
6208;BME280;3137;51.550;7.060;2023-07-29T12:30:23;100398.16;;;22.26;62.50
6208;BME280;3137;51.550;7.060;2023-07-29T12:32:51;100398.03;;;22.33;62.71
6208;BME280;3137;51.550;7.060;2023-07-29T12:35:18;100393.06;;;22.30;60.63
6208;BME280;3137;51.550;7.060;2023-07-29T12:37:44;100397.09;;;22.39;63.64
6208;BME280;3137;51.550;7.060;2023-07-29T12:40:24;100396.75;;;22.47;62.84
6208;BME280;3137;51.550;7.060;2023-07-29T12:42:51;100401.69;;;22.62;61.31
6208;BME280;3137;51.550;7.060;2023-07-29T12:45:18;100401.84;;;22.55;59.91
6208;BME280;3137;51.550;7.060;2023-07-29T12:47:45;100403.72;;;22.55;58.62
6208;BME280;3137;51.550;7.060;2023-07-29T12:50:11;100397.78;;;22.58;61.94
6208;BME280;3137;51.550;7.060;2023-07-29T12:52:38;100406.44;;;22.66;60.99
6208;BME280;3137;51.550;7.060;2023-07-29T12:55:05;100411.31;;;22.53;59.99
6208;BME280;3137;51.550;7.060;2023-07-29T12:57:32;100408.00;;;22.51;57.80
6208;BME280;3137;51.550;7.060;2023-07-29T12:59:58;100396.84;;;22.41;58.53
6208;BME280;3137;51.550;7.060;2023-07-29T13:02:25;100401.72;;;22.50;61.74
6208;BME280;3137;51.550;7.060;2023-07-29T13:04:51;100387.63;;;22.76;58.31
6208;BME280;3137;51.550;7.060;2023-07-29T13:07:18;100391.03;;;22.95;58.89
6208;BME280;3137;51.550;7.060;2023-07-29T13:09:44;100398.47;;;23.11;59.27
6208;BME280;3137;51.550;7.060;2023-07-29T13:12:11;100390.66;;;23.03;57.44
6208;BME280;3137;51.550;7.060;2023-07-29T13:14:37;100390.19;;;22.83;56.93